sensor_id;sensor_type;location;lat;lon;timestamp;P1;durP1;ratioP1;P2;durP2;ratioP2
64208;SDS011;50527;52.414;13.226;2023-06-14T00:01:17;2.25;;;0.60;;
64208;SDS011;50527;52.414;13.226;2023-06-14T00:03:45;0.73;;;0.50;;
64208;SDS011;50527;52.414;13.226;2023-06-14T00:06:10;2.47;;;0.73;;
64208;SDS011;50527;52.414;13.226;2023-06-14T00:08:36;1.58;;;0.43;;
64208;SDS011;50527;52.414;13.226;2023-06-14T00:11:01;2.13;;;0.50;;
64208;SDS011;50527;52.414;13.226;2023-06-14T00:13:27;1.70;;;0.50;;
64208;SDS011;50527;52.414;13.226;2023-06-14T00:15:53;2.40;;;0.55;;
64208;SDS011;50527;52.414;13.226;2023-06-14T00:18:20;3.60;;;0.98;;
64208;SDS011;50527;52.414;13.226;2023-06-14T00:20:49;1.13;;;0.50;;
64208;SDS011;50527;52.414;13.226;2023-06-14T00:23:14;1.27;;;0.40;;
64208;SDS011;50527;52.414;13.226;2023-06-14T00:25:40;2.38;;;0.40;;
64208;SDS011;50527;52.414;13.226;2023-06-14T00:28:05;2.90;;;0.68;;
64208;SDS011;50527;52.414;13.226;2023-06-14T00:30:31;2.72;;;0.60;;
64208;SDS011;50527;52.414;13.226;2023-06-14T00:32:56;1.45;;;0.55;;
64208;SDS011;50527;52.414;13.226;2023-06-14T00:35:22;4.95;;;0.55;;
64208;SDS011;50527;52.414;13.226;2023-06-14T00:37:48;1.23;;;0.52;;
64208;SDS011;50527;52.414;13.226;2023-06-14T00:40:13;2.40;;;0.70;;
64208;SDS011;50527;52.414;13.226;2023-06-14T00:42:39;1.75;;;0.55;;
64208;SDS011;50527;52.414;13.226;2023-06-14T00:45:04;1.27;;;0.70;;
64208;SDS011;50527;52.414;13.226;2023-06-14T00:47:30;2.10;;;0.60;;
64208;SDS011;50527;52.414;13.226;2023-06-14T00:49:56;2.85;;;0.55;;
64208;SDS011;50527;52.414;13.226;2023-06-14T00:52:23;2.60;;;0.60;;
64208;SDS011;50527;52.414;13.226;2023-06-14T00:54:49;1.05;;;0.60;;
64208;SDS011;50527;52.414;13.226;2023-06-14T00:57:14;1.35;;;0.47;;
64208;SDS011;50527;52.414;13.226;2023-06-14T00:59:41;0.75;;;0.40;;
64208;SDS011;50527;52.414;13.226;2023-06-14T01:02:07;1.90;;;0.50;;
64208;SDS011;50527;52.414;13.226;2023-06-14T01:04:33;1.77;;;0.63;;
64208;SDS011;50527;52.414;13.226;2023-06-14T01:07:03;1.40;;;0.50;;
64208;SDS011;50527;52.414;13.226;2023-06-14T01:09:54;2.25;;;0.88;;
64208;SDS011;50527;52.414;13.226;2023-06-14T01:12:31;1.58;;;0.70;;
64208;SDS011;50527;52.414;13.226;2023-06-14T01:15:29;1.45;;;0.52;;
64208;SDS011;50527;52.414;13.226;2023-06-14T01:17:56;2.00;;;0.80;;
64208;SDS011;50527;52.414;13.226;2023-06-14T01:20:28;3.38;;;0.80;;
64208;SDS011;50527;52.414;13.226;2023-06-14T01:22:57;0.82;;;0.50;;
64208;SDS011;50527;52.414;13.226;2023-06-14T01:25:23;3.08;;;0.80;;
64208;SDS011;50527;52.414;13.226;2023-06-14T01:27:50;3.30;;;0.82;;
64208;SDS011;50527;52.414;13.226;2023-06-14T01:30:18;2.00;;;0.55;;
64208;SDS011;50527;52.414;13.226;2023-06-14T01:32:46;4.78;;;0.80;;
64208;SDS011;50527;52.414;13.226;2023-06-14T01:35:13;1.42;;;0.50;;
64208;SDS011;50527;52.414;13.226;2023-06-14T01:37:39;1.40;;;0.80;;
64208;SDS011;50527;52.414;13.226;2023-06-14T01:40:07;2.65;;;0.80;;
64208;SDS011;50527;52.414;13.226;2023-06-14T01:42:34;2.60;;;0.70;;
64208;SDS011;50527;52.414;13.226;2023-06-14T01:45:02;1.23;;;0.68;;
64208;SDS011;50527;52.414;13.226;2023-06-14T01:47:29;2.63;;;0.63;;
64208;SDS011;50527;52.414;13.226;2023-06-14T01:49:59;2.22;;;1.08;;
64208;SDS011;50527;52.414;13.226;2023-06-14T01:52:24;1.80;;;1.02;;
64208;SDS011;50527;52.414;13.226;2023-06-14T01:54:50;2.10;;;0.85;;
64208;SDS011;50527;52.414;13.226;2023-06-14T01:57:16;2.00;;;0.88;;
64208;SDS011;50527;52.414;13.226;2023-06-14T01:59:41;4.18;;;0.95;;
64208;SDS011;50527;52.414;13.226;2023-06-14T02:02:06;2.10;;;0.80;;
64208;SDS011;50527;52.414;13.226;2023-06-14T02:04:32;3.28;;;0.82;;
64208;SDS011;50527;52.414;13.226;2023-06-14T02:06:58;3.25;;;0.93;;
64208;SDS011;50527;52.414;13.226;2023-06-14T02:12:11;3.47;;;0.80;;
64208;SDS011;50527;52.414;13.226;2023-06-14T02:14:36;2.20;;;0.80;;
64208;SDS011;50527;52.414;13.226;2023-06-14T02:17:03;6.00;;;1.33;;
64208;SDS011;50527;52.414;13.226;2023-06-14T02:19:28;3.05;;;1.15;;
64208;SDS011;50527;52.414;13.226;2023-06-14T02:21:54;2.03;;;1.02;;
64208;SDS011;50527;52.414;13.226;2023-06-14T02:24:19;3.47;;;0.90;;
64208;SDS011;50527;52.414;13.226;2023-06-14T02:26:45;2.47;;;1.08;;
64208;SDS011;50527;52.414;13.226;2023-06-14T02:29:11;2.38;;;0.90;;
64208;SDS011;50527;52.414;13.226;2023-06-14T02:31:39;1.70;;;0.88;;
64208;SDS011;50527;52.414;13.226;2023-06-14T02:34:05;3.55;;;0.80;;
64208;SDS011;50527;52.414;13.226;2023-06-14T02:36:33;2.15;;;0.88;;
64208;SDS011;50527;52.414;13.226;2023-06-14T02:38:59;3.65;;;1.20;;
64208;SDS011;50527;52.414;13.226;2023-06-14T02:41:25;2.28;;;1.05;;
64208;SDS011;50527;52.414;13.226;2023-06-14T02:43:51;4.25;;;1.05;;
64208;SDS011;50527;52.414;13.226;2023-06-14T02:46:16;4.32;;;0.90;;
64208;SDS011;50527;52.414;13.226;2023-06-14T02:48:42;2.50;;;0.80;;
64208;SDS011;50527;52.414;13.226;2023-06-14T02:51:07;4.03;;;0.90;;
64208;SDS011;50527;52.414;13.226;2023-06-14T02:53:34;3.33;;;1.00;;
64208;SDS011;50527;52.414;13.226;2023-06-14T02:56:01;1.73;;;0.85;;
64208;SDS011;50527;52.414;13.226;2023-06-14T03:01:34;2.03;;;0.73;;
64208;SDS011;50527;52.414;13.226;2023-06-14T03:04:01;1.75;;;0.98;;
64208;SDS011;50527;52.414;13.226;2023-06-14T03:06:28;5.07;;;1.10;;
64208;SDS011;50527;52.414;13.226;2023-06-14T03:08:57;1.63;;;0.80;;
64208;SDS011;50527;52.414;13.226;2023-06-14T03:11:25;1.92;;;0.90;;
64208;SDS011;50527;52.414;13.226;2023-06-14T03:13:51;5.10;;;0.90;;
64208;SDS011;50527;52.414;13.226;2023-06-14T03:16:17;3.67;;;1.20;;
64208;SDS011;50527;52.414;13.226;2023-06-14T03:18:46;2.38;;;1.17;;
64208;SDS011;50527;52.414;13.226;2023-06-14T03:21:13;2.17;;;1.08;;
64208;SDS011;50527;52.414;13.226;2023-06-14T03:23:40;2.10;;;1.00;;
64208;SDS011;50527;52.414;13.226;2023-06-14T03:26:06;2.92;;;1.00;;
64208;SDS011;50527;52.414;13.226;2023-06-14T03:28:32;5.85;;;1.13;;
64208;SDS011;50527;52.414;13.226;2023-06-14T03:30:57;3.25;;;1.17;;
64208;SDS011;50527;52.414;13.226;2023-06-14T03:33:23;3.28;;;1.30;;
64208;SDS011;50527;52.414;13.226;2023-06-14T03:35:50;2.15;;;1.17;;
64208;SDS011;50527;52.414;13.226;2023-06-14T03:38:15;3.17;;;1.13;;
64208;SDS011;50527;52.414;13.226;2023-06-14T03:44:02;2.78;;;1.00;;
64208;SDS011;50527;52.414;13.226;2023-06-14T03:46:28;5.60;;;1.17;;
64208;SDS011;50527;52.414;13.226;2023-06-14T03:48:53;3.65;;;1.08;;
64208;SDS011;50527;52.414;13.226;2023-06-14T03:51:19;2.80;;;1.38;;
64208;SDS011;50527;52.414;13.226;2023-06-14T03:53:45;4.13;;;1.02;;
64208;SDS011;50527;52.414;13.226;2023-06-14T03:56:11;7.70;;;1.10;;
64208;SDS011;50527;52.414;13.226;2023-06-14T03:58:36;2.25;;;1.10;;
64208;SDS011;50527;52.414;13.226;2023-06-14T04:01:02;2.20;;;1.08;;
64208;SDS011;50527;52.414;13.226;2023-06-14T04:03:27;2.70;;;1.27;;
64208;SDS011;50527;52.414;13.226;2023-06-14T04:05:54;2.25;;;1.10;;
64208;SDS011;50527;52.414;13.226;2023-06-14T04:08:21;2.15;;;1.20;;
64208;SDS011;50527;52.414;13.226;2023-06-14T04:10:47;4.85;;;1.20;;
64208;SDS011;50527;52.414;13.226;2023-06-14T04:13:12;3.00;;;1.25;;
64208;SDS011;50527;52.414;13.226;2023-06-14T04:15:38;4.43;;;1.02;;
64208;SDS011;50527;52.414;13.226;2023-06-14T04:18:07;3.33;;;1.10;;
64208;SDS011;50527;52.414;13.226;2023-06-14T04:20:33;8.38;;;1.00;;
64208;SDS011;50527;52.414;13.226;2023-06-14T04:23:10;3.63;;;1.20;;
64208;SDS011;50527;52.414;13.226;2023-06-14T04:25:40;2.22;;;1.00;;
64208;SDS011;50527;52.414;13.226;2023-06-14T04:28:11;2.90;;;1.08;;
64208;SDS011;50527;52.414;13.226;2023-06-14T04:30:37;3.08;;;1.30;;
64208;SDS011;50527;52.414;13.226;2023-06-14T04:33:03;4.90;;;1.30;;
64208;SDS011;50527;52.414;13.226;2023-06-14T04:35:30;3.38;;;1.23;;
64208;SDS011;50527;52.414;13.226;2023-06-14T04:37:57;2.28;;;1.33;;
64208;SDS011;50527;52.414;13.226;2023-06-14T04:40:23;3.75;;;1.50;;
64208;SDS011;50527;52.414;13.226;2023-06-14T04:42:49;2.45;;;1.27;;
64208;SDS011;50527;52.414;13.226;2023-06-14T04:45:16;2.45;;;1.30;;
64208;SDS011;50527;52.414;13.226;2023-06-14T04:47:41;4.03;;;1.30;;
64208;SDS011;50527;52.414;13.226;2023-06-14T04:50:08;3.97;;;1.35;;
64208;SDS011;50527;52.414;13.226;2023-06-14T04:52:35;3.20;;;1.48;;
64208;SDS011;50527;52.414;13.226;2023-06-14T04:55:02;2.15;;;1.35;;
64208;SDS011;50527;52.414;13.226;2023-06-14T04:57:28;3.80;;;1.60;;
64208;SDS011;50527;52.414;13.226;2023-06-14T04:59:53;4.40;;;1.55;;
64208;SDS011;50527;52.414;13.226;2023-06-14T05:02:20;3.92;;;1.30;;
64208;SDS011;50527;52.414;13.226;2023-06-14T05:04:49;3.97;;;1.40;;
64208;SDS011;50527;52.414;13.226;2023-06-14T05:07:15;3.10;;;1.38;;
64208;SDS011;50527;52.414;13.226;2023-06-14T05:09:41;3.63;;;1.42;;
64208;SDS011;50527;52.414;13.226;2023-06-14T05:12:06;6.03;;;1.23;;
64208;SDS011;50527;52.414;13.226;2023-06-14T05:14:35;2.88;;;1.38;;
64208;SDS011;50527;52.414;13.226;2023-06-14T05:17:01;3.70;;;1.40;;
64208;SDS011;50527;52.414;13.226;2023-06-14T05:19:27;2.15;;;1.20;;
64208;SDS011;50527;52.414;13.226;2023-06-14T05:21:53;2.72;;;1.40;;
64208;SDS011;50527;52.414;13.226;2023-06-14T05:24:19;4.78;;;1.40;;
64208;SDS011;50527;52.414;13.226;2023-06-14T05:26:45;3.28;;;1.30;;
64208;SDS011;50527;52.414;13.226;2023-06-14T05:29:11;6.00;;;1.20;;
64208;SDS011;50527;52.414;13.226;2023-06-14T05:31:37;6.03;;;1.20;;
64208;SDS011;50527;52.414;13.226;2023-06-14T05:34:02;1.98;;;1.00;;
64208;SDS011;50527;52.414;13.226;2023-06-14T05:36:28;2.80;;;1.20;;
64208;SDS011;50527;52.414;13.226;2023-06-14T05:38:54;4.65;;;1.17;;
64208;SDS011;50527;52.414;13.226;2023-06-14T05:41:25;2.08;;;0.98;;
64208;SDS011;50527;52.414;13.226;2023-06-14T05:43:51;5.18;;;1.38;;
64208;SDS011;50527;52.414;13.226;2023-06-14T05:46:17;5.25;;;1.23;;
64208;SDS011;50527;52.414;13.226;2023-06-14T05:48:47;1.85;;;1.08;;
64208;SDS011;50527;52.414;13.226;2023-06-14T05:51:22;3.67;;;1.25;;
64208;SDS011;50527;52.414;13.226;2023-06-14T05:53:49;6.88;;;1.08;;
64208;SDS011;50527;52.414;13.226;2023-06-14T05:56:15;2.15;;;1.05;;
64208;SDS011;50527;52.414;13.226;2023-06-14T05:58:42;6.53;;;1.42;;
64208;SDS011;50527;52.414;13.226;2023-06-14T06:01:08;2.45;;;1.20;;
64208;SDS011;50527;52.414;13.226;2023-06-14T06:03:34;2.67;;;1.23;;
64208;SDS011;50527;52.414;13.226;2023-06-14T06:05:59;1.63;;;1.00;;
64208;SDS011;50527;52.414;13.226;2023-06-14T06:08:26;3.08;;;1.17;;
64208;SDS011;50527;52.414;13.226;2023-06-14T06:10:51;3.90;;;1.10;;
64208;SDS011;50527;52.414;13.226;2023-06-14T06:13:17;4.18;;;1.13;;
64208;SDS011;50527;52.414;13.226;2023-06-14T06:15:42;3.63;;;1.13;;
64208;SDS011;50527;52.414;13.226;2023-06-14T06:18:09;2.95;;;1.27;;
64208;SDS011;50527;52.414;13.226;2023-06-14T06:20:34;2.72;;;0.98;;
64208;SDS011;50527;52.414;13.226;2023-06-14T06:23:01;3.25;;;0.93;;
64208;SDS011;50527;52.414;13.226;2023-06-14T06:25:26;2.53;;;1.02;;
64208;SDS011;50527;52.414;13.226;2023-06-14T06:27:53;1.95;;;0.90;;
64208;SDS011;50527;52.414;13.226;2023-06-14T06:30:19;3.50;;;1.25;;
64208;SDS011;50527;52.414;13.226;2023-06-14T06:32:45;2.28;;;0.90;;
64208;SDS011;50527;52.414;13.226;2023-06-14T06:35:12;3.25;;;1.10;;
64208;SDS011;50527;52.414;13.226;2023-06-14T06:37:38;1.58;;;0.85;;
64208;SDS011;50527;52.414;13.226;2023-06-14T06:40:03;2.40;;;0.90;;
64208;SDS011;50527;52.414;13.226;2023-06-14T06:42:30;4.07;;;1.17;;
64208;SDS011;50527;52.414;13.226;2023-06-14T06:44:56;5.10;;;1.70;;
64208;SDS011;50527;52.414;13.226;2023-06-14T06:47:22;3.35;;;1.20;;
64208;SDS011;50527;52.414;13.226;2023-06-14T06:49:47;9.80;;;1.40;;
64208;SDS011;50527;52.414;13.226;2023-06-14T06:52:13;2.08;;;1.10;;
64208;SDS011;50527;52.414;13.226;2023-06-14T06:54:38;4.70;;;1.30;;
64208;SDS011;50527;52.414;13.226;2023-06-14T06:57:04;3.97;;;1.40;;
64208;SDS011;50527;52.414;13.226;2023-06-14T06:59:31;6.93;;;1.45;;
64208;SDS011;50527;52.414;13.226;2023-06-14T07:01:56;5.75;;;1.30;;
64208;SDS011;50527;52.414;13.226;2023-06-14T07:04:22;10.95;;;1.42;;
64208;SDS011;50527;52.414;13.226;2023-06-14T07:06:47;3.65;;;1.42;;
64208;SDS011;50527;52.414;13.226;2023-06-14T07:09:13;6.80;;;1.27;;
64208;SDS011;50527;52.414;13.226;2023-06-14T07:11:39;4.20;;;1.45;;
64208;SDS011;50527;52.414;13.226;2023-06-14T07:14:05;3.72;;;1.13;;
64208;SDS011;50527;52.414;13.226;2023-06-14T07:16:31;3.63;;;1.20;;
64208;SDS011;50527;52.414;13.226;2023-06-14T07:18:57;4.72;;;1.50;;
64208;SDS011;50527;52.414;13.226;2023-06-14T07:21:22;2.72;;;1.42;;
64208;SDS011;50527;52.414;13.226;2023-06-14T07:23:50;5.45;;;1.67;;
64208;SDS011;50527;52.414;13.226;2023-06-14T07:26:16;6.43;;;1.33;;
64208;SDS011;50527;52.414;13.226;2023-06-14T07:28:41;7.68;;;1.70;;
64208;SDS011;50527;52.414;13.226;2023-06-14T07:37:53;5.47;;;1.50;;
64208;SDS011;50527;52.414;13.226;2023-06-14T07:40:19;5.40;;;1.20;;
64208;SDS011;50527;52.414;13.226;2023-06-14T07:42:45;4.72;;;1.13;;
64208;SDS011;50527;52.414;13.226;2023-06-14T07:45:12;2.30;;;1.20;;
64208;SDS011;50527;52.414;13.226;2023-06-14T07:47:39;3.80;;;1.45;;
64208;SDS011;50527;52.414;13.226;2023-06-14T07:50:04;4.68;;;1.10;;
64208;SDS011;50527;52.414;13.226;2023-06-14T07:52:30;4.68;;;1.33;;
64208;SDS011;50527;52.414;13.226;2023-06-14T07:54:55;7.70;;;1.48;;
64208;SDS011;50527;52.414;13.226;2023-06-14T07:57:21;5.90;;;1.27;;
64208;SDS011;50527;52.414;13.226;2023-06-14T07:59:47;8.75;;;1.30;;
64208;SDS011;50527;52.414;13.226;2023-06-14T08:02:12;3.40;;;1.20;;
64208;SDS011;50527;52.414;13.226;2023-06-14T08:04:38;4.28;;;1.30;;
64208;SDS011;50527;52.414;13.226;2023-06-14T08:07:04;5.85;;;1.25;;
64208;SDS011;50527;52.414;13.226;2023-06-14T08:09:29;1.92;;;1.00;;
64208;SDS011;50527;52.414;13.226;2023-06-14T08:11:55;3.30;;;1.10;;
64208;SDS011;50527;52.414;13.226;2023-06-14T08:14:21;2.63;;;1.10;;
64208;SDS011;50527;52.414;13.226;2023-06-14T08:16:47;2.92;;;1.20;;
64208;SDS011;50527;52.414;13.226;2023-06-14T08:22:35;2.05;;;1.08;;
64208;SDS011;50527;52.414;13.226;2023-06-14T08:28:23;6.43;;;1.10;;
64208;SDS011;50527;52.414;13.226;2023-06-14T08:30:50;2.88;;;1.13;;
64208;SDS011;50527;52.414;13.226;2023-06-14T08:33:16;2.58;;;0.95;;
64208;SDS011;50527;52.414;13.226;2023-06-14T08:35:41;5.05;;;1.00;;
64208;SDS011;50527;52.414;13.226;2023-06-14T08:38:07;2.42;;;1.02;;
64208;SDS011;50527;52.414;13.226;2023-06-14T08:40:33;2.05;;;0.95;;
64208;SDS011;50527;52.414;13.226;2023-06-14T08:43:03;2.17;;;0.98;;
64208;SDS011;50527;52.414;13.226;2023-06-14T08:45:28;5.55;;;1.10;;
64208;SDS011;50527;52.414;13.226;2023-06-14T08:47:54;8.23;;;1.20;;
64208;SDS011;50527;52.414;13.226;2023-06-14T08:50:24;2.03;;;0.80;;
64208;SDS011;50527;52.414;13.226;2023-06-14T08:52:55;3.35;;;1.10;;
64208;SDS011;50527;52.414;13.226;2023-06-14T08:55:27;4.63;;;0.90;;
64208;SDS011;50527;52.414;13.226;2023-06-14T08:57:54;2.78;;;0.73;;
64208;SDS011;50527;52.414;13.226;2023-06-14T09:00:22;4.70;;;0.70;;
64208;SDS011;50527;52.414;13.226;2023-06-14T09:02:49;3.10;;;0.73;;
64208;SDS011;50527;52.414;13.226;2023-06-14T09:05:20;2.85;;;1.00;;
64208;SDS011;50527;52.414;13.226;2023-06-14T09:07:48;2.55;;;0.80;;
64208;SDS011;50527;52.414;13.226;2023-06-14T09:10:15;1.77;;;0.80;;
64208;SDS011;50527;52.414;13.226;2023-06-14T09:12:40;7.35;;;1.23;;
64208;SDS011;50527;52.414;13.226;2023-06-14T09:15:07;3.85;;;1.10;;
64208;SDS011;50527;52.414;13.226;2023-06-14T09:17:37;4.93;;;1.10;;
64208;SDS011;50527;52.414;13.226;2023-06-14T09:20:07;1.65;;;0.70;;
64208;SDS011;50527;52.414;13.226;2023-06-14T09:22:42;4.30;;;0.88;;
64208;SDS011;50527;52.414;13.226;2023-06-14T09:25:07;3.38;;;0.77;;
64208;SDS011;50527;52.414;13.226;2023-06-14T09:27:33;1.67;;;0.90;;
64208;SDS011;50527;52.414;13.226;2023-06-14T09:30:00;2.40;;;0.70;;
64208;SDS011;50527;52.414;13.226;2023-06-14T09:32:27;3.90;;;0.95;;
64208;SDS011;50527;52.414;13.226;2023-06-14T09:34:52;6.72;;;1.23;;
64208;SDS011;50527;52.414;13.226;2023-06-14T09:37:51;4.70;;;0.80;;
64208;SDS011;50527;52.414;13.226;2023-06-14T09:40:10;3.17;;;0.90;;
64208;SDS011;50527;52.414;13.226;2023-06-14T09:42:36;2.45;;;0.80;;
64208;SDS011;50527;52.414;13.226;2023-06-14T09:45:02;1.38;;;0.80;;
64208;SDS011;50527;52.414;13.226;2023-06-14T09:47:29;1.67;;;0.70;;
64208;SDS011;50527;52.414;13.226;2023-06-14T09:49:55;3.40;;;0.90;;
64208;SDS011;50527;52.414;13.226;2023-06-14T09:52:21;2.28;;;0.90;;
64208;SDS011;50527;52.414;13.226;2023-06-14T09:54:48;3.80;;;0.82;;
64208;SDS011;50527;52.414;13.226;2023-06-14T09:57:15;1.92;;;0.95;;
64208;SDS011;50527;52.414;13.226;2023-06-14T09:59:42;1.65;;;0.85;;
64208;SDS011;50527;52.414;13.226;2023-06-14T10:02:21;5.22;;;1.15;;
64208;SDS011;50527;52.414;13.226;2023-06-14T10:05:04;2.10;;;0.90;;
64208;SDS011;50527;52.414;13.226;2023-06-14T10:10:20;3.25;;;1.00;;
64208;SDS011;50527;52.414;13.226;2023-06-14T10:12:45;4.88;;;0.98;;
64208;SDS011;50527;52.414;13.226;2023-06-14T10:15:14;3.53;;;0.95;;
64208;SDS011;50527;52.414;13.226;2023-06-14T10:17:46;2.10;;;0.90;;
64208;SDS011;50527;52.414;13.226;2023-06-14T10:23:10;4.35;;;1.00;;
64208;SDS011;50527;52.414;13.226;2023-06-14T10:25:43;2.60;;;0.70;;
64208;SDS011;50527;52.414;13.226;2023-06-14T10:28:18;2.03;;;0.73;;
64208;SDS011;50527;52.414;13.226;2023-06-14T10:33:32;4.32;;;0.85;;
64208;SDS011;50527;52.414;13.226;2023-06-14T10:36:09;2.00;;;0.90;;
64208;SDS011;50527;52.414;13.226;2023-06-14T10:39:18;2.22;;;1.05;;
64208;SDS011;50527;52.414;13.226;2023-06-14T10:41:54;2.80;;;0.80;;
64208;SDS011;50527;52.414;13.226;2023-06-14T10:46:47;3.78;;;0.90;;
64208;SDS011;50527;52.414;13.226;2023-06-14T10:49:48;3.13;;;0.90;;
64208;SDS011;50527;52.414;13.226;2023-06-14T10:52:23;2.10;;;1.00;;
64208;SDS011;50527;52.414;13.226;2023-06-14T10:57:33;3.08;;;1.00;;
64208;SDS011;50527;52.414;13.226;2023-06-14T11:00:00;3.72;;;0.70;;
64208;SDS011;50527;52.414;13.226;2023-06-14T11:02:45;7.88;;;1.23;;
64208;SDS011;50527;52.414;13.226;2023-06-14T11:11:06;2.15;;;0.80;;
64208;SDS011;50527;52.414;13.226;2023-06-14T11:13:33;2.08;;;0.80;;
64208;SDS011;50527;52.414;13.226;2023-06-14T11:15:59;2.42;;;0.80;;
64208;SDS011;50527;52.414;13.226;2023-06-14T11:18:25;2.65;;;0.82;;
64208;SDS011;50527;52.414;13.226;2023-06-14T11:20:52;1.60;;;0.90;;
64208;SDS011;50527;52.414;13.226;2023-06-14T11:23:18;4.57;;;0.90;;
64208;SDS011;50527;52.414;13.226;2023-06-14T11:25:43;3.45;;;0.82;;
64208;SDS011;50527;52.414;13.226;2023-06-14T11:28:14;2.35;;;0.95;;
64208;SDS011;50527;52.414;13.226;2023-06-14T11:30:39;2.53;;;0.73;;
64208;SDS011;50527;52.414;13.226;2023-06-14T11:33:09;4.82;;;0.82;;
64208;SDS011;50527;52.414;13.226;2023-06-14T11:35:35;5.25;;;0.93;;
64208;SDS011;50527;52.414;13.226;2023-06-14T11:38:01;3.90;;;1.13;;
64208;SDS011;50527;52.414;13.226;2023-06-14T11:40:26;4.68;;;0.90;;
64208;SDS011;50527;52.414;13.226;2023-06-14T11:42:59;2.28;;;0.90;;
64208;SDS011;50527;52.414;13.226;2023-06-14T11:45:25;2.88;;;1.02;;
64208;SDS011;50527;52.414;13.226;2023-06-14T11:47:53;3.05;;;0.82;;
64208;SDS011;50527;52.414;13.226;2023-06-14T11:50:21;3.00;;;0.70;;
64208;SDS011;50527;52.414;13.226;2023-06-14T11:52:51;4.50;;;0.90;;
64208;SDS011;50527;52.414;13.226;2023-06-14T11:55:21;7.07;;;1.00;;
64208;SDS011;50527;52.414;13.226;2023-06-14T11:57:47;1.58;;;0.63;;
64208;SDS011;50527;52.414;13.226;2023-06-14T12:00:13;1.60;;;0.57;;
64208;SDS011;50527;52.414;13.226;2023-06-14T12:02:40;5.57;;;0.93;;
64208;SDS011;50527;52.414;13.226;2023-06-14T12:05:06;4.97;;;1.20;;
64208;SDS011;50527;52.414;13.226;2023-06-14T12:07:34;2.85;;;0.82;;
64208;SDS011;50527;52.414;13.226;2023-06-14T12:13:26;3.58;;;0.80;;
64208;SDS011;50527;52.414;13.226;2023-06-14T12:15:58;1.15;;;0.50;;
64208;SDS011;50527;52.414;13.226;2023-06-14T12:18:33;3.38;;;1.00;;
64208;SDS011;50527;52.414;13.226;2023-06-14T12:21:00;3.63;;;0.70;;
64208;SDS011;50527;52.414;13.226;2023-06-14T12:23:42;1.65;;;0.80;;
64208;SDS011;50527;52.414;13.226;2023-06-14T12:26:15;2.60;;;0.90;;
64208;SDS011;50527;52.414;13.226;2023-06-14T12:28:42;3.55;;;0.80;;
64208;SDS011;50527;52.414;13.226;2023-06-14T12:31:10;1.85;;;0.75;;
64208;SDS011;50527;52.414;13.226;2023-06-14T12:33:37;3.97;;;1.08;;
64208;SDS011;50527;52.414;13.226;2023-06-14T12:36:04;2.75;;;0.70;;
64208;SDS011;50527;52.414;13.226;2023-06-14T12:38:32;5.72;;;0.93;;
64208;SDS011;50527;52.414;13.226;2023-06-14T12:40:57;2.33;;;0.90;;
64208;SDS011;50527;52.414;13.226;2023-06-14T12:43:23;3.50;;;0.98;;
64208;SDS011;50527;52.414;13.226;2023-06-14T12:45:49;7.22;;;1.00;;
64208;SDS011;50527;52.414;13.226;2023-06-14T12:48:14;2.25;;;0.82;;
64208;SDS011;50527;52.414;13.226;2023-06-14T12:50:40;3.10;;;0.80;;
64208;SDS011;50527;52.414;13.226;2023-06-14T12:53:07;7.90;;;0.90;;
64208;SDS011;50527;52.414;13.226;2023-06-14T12:55:33;4.55;;;0.80;;
64208;SDS011;50527;52.414;13.226;2023-06-14T12:57:58;3.03;;;0.85;;
64208;SDS011;50527;52.414;13.226;2023-06-14T13:00:24;3.20;;;1.00;;
64208;SDS011;50527;52.414;13.226;2023-06-14T13:02:51;2.67;;;0.70;;
64208;SDS011;50527;52.414;13.226;2023-06-14T13:05:17;4.00;;;1.00;;
64208;SDS011;50527;52.414;13.226;2023-06-14T13:07:42;2.47;;;0.80;;
64208;SDS011;50527;52.414;13.226;2023-06-14T13:10:08;4.75;;;0.95;;
64208;SDS011;50527;52.414;13.226;2023-06-14T13:12:34;2.13;;;0.82;;
64208;SDS011;50527;52.414;13.226;2023-06-14T13:14:59;3.05;;;0.90;;
64208;SDS011;50527;52.414;13.226;2023-06-14T13:17:25;6.00;;;1.10;;
64208;SDS011;50527;52.414;13.226;2023-06-14T13:19:51;2.38;;;1.05;;
64208;SDS011;50527;52.414;13.226;2023-06-14T13:22:16;3.17;;;1.17;;
64208;SDS011;50527;52.414;13.226;2023-06-14T13:24:42;3.50;;;0.90;;
64208;SDS011;50527;52.414;13.226;2023-06-14T13:27:07;5.70;;;1.17;;
64208;SDS011;50527;52.414;13.226;2023-06-14T13:29:33;2.40;;;0.88;;
64208;SDS011;50527;52.414;13.226;2023-06-14T13:32:00;4.07;;;1.10;;
64208;SDS011;50527;52.414;13.226;2023-06-14T13:34:26;9.52;;;0.90;;
64208;SDS011;50527;52.414;13.226;2023-06-14T13:36:52;3.10;;;0.88;;
64208;SDS011;50527;52.414;13.226;2023-06-14T13:39:17;2.90;;;0.90;;
64208;SDS011;50527;52.414;13.226;2023-06-14T13:41:43;4.25;;;1.00;;
64208;SDS011;50527;52.414;13.226;2023-06-14T13:44:08;4.18;;;0.90;;
64208;SDS011;50527;52.414;13.226;2023-06-14T13:46:36;5.60;;;1.10;;
64208;SDS011;50527;52.414;13.226;2023-06-14T13:49:01;6.03;;;0.82;;
64208;SDS011;50527;52.414;13.226;2023-06-14T13:51:28;4.72;;;0.82;;
64208;SDS011;50527;52.414;13.226;2023-06-14T13:53:53;3.88;;;1.20;;
64208;SDS011;50527;52.414;13.226;2023-06-14T13:56:20;4.60;;;0.98;;
64208;SDS011;50527;52.414;13.226;2023-06-14T13:58:47;2.58;;;0.90;;
64208;SDS011;50527;52.414;13.226;2023-06-14T14:01:13;3.42;;;0.80;;
64208;SDS011;50527;52.414;13.226;2023-06-14T14:03:38;5.38;;;0.88;;
64208;SDS011;50527;52.414;13.226;2023-06-14T14:06:04;7.40;;;0.80;;
64208;SDS011;50527;52.414;13.226;2023-06-14T14:08:30;3.17;;;0.80;;
64208;SDS011;50527;52.414;13.226;2023-06-14T14:10:56;1.80;;;0.70;;
64208;SDS011;50527;52.414;13.226;2023-06-14T14:13:22;3.55;;;0.98;;
64208;SDS011;50527;52.414;13.226;2023-06-14T14:15:47;1.95;;;0.80;;
64208;SDS011;50527;52.414;13.226;2023-06-14T14:18:14;1.98;;;0.80;;
64208;SDS011;50527;52.414;13.226;2023-06-14T14:20:40;3.33;;;1.02;;
64208;SDS011;50527;52.414;13.226;2023-06-14T14:23:05;9.27;;;1.13;;
64208;SDS011;50527;52.414;13.226;2023-06-14T14:25:31;6.55;;;0.90;;
64208;SDS011;50527;52.414;13.226;2023-06-14T14:27:56;6.57;;;0.90;;
64208;SDS011;50527;52.414;13.226;2023-06-14T14:30:22;4.90;;;1.02;;
64208;SDS011;50527;52.414;13.226;2023-06-14T14:32:48;2.13;;;0.70;;
64208;SDS011;50527;52.414;13.226;2023-06-14T14:35:16;5.70;;;0.80;;
64208;SDS011;50527;52.414;13.226;2023-06-14T14:37:42;3.53;;;0.93;;
64208;SDS011;50527;52.414;13.226;2023-06-14T14:40:08;3.42;;;1.00;;
64208;SDS011;50527;52.414;13.226;2023-06-14T14:42:35;2.83;;;0.80;;
64208;SDS011;50527;52.414;13.226;2023-06-14T14:45:00;4.50;;;0.90;;
64208;SDS011;50527;52.414;13.226;2023-06-14T14:47:26;2.42;;;0.70;;
64208;SDS011;50527;52.414;13.226;2023-06-14T14:49:51;4.28;;;1.00;;
64208;SDS011;50527;52.414;13.226;2023-06-14T14:52:17;1.67;;;0.70;;
64208;SDS011;50527;52.414;13.226;2023-06-14T14:54:42;2.83;;;0.77;;
64208;SDS011;50527;52.414;13.226;2023-06-14T14:57:08;4.97;;;1.23;;
64208;SDS011;50527;52.414;13.226;2023-06-14T14:59:33;3.15;;;0.90;;
64208;SDS011;50527;52.414;13.226;2023-06-14T15:01:59;3.53;;;1.10;;
64208;SDS011;50527;52.414;13.226;2023-06-14T15:04:25;4.25;;;0.88;;
64208;SDS011;50527;52.414;13.226;2023-06-14T15:06:50;2.40;;;0.80;;
64208;SDS011;50527;52.414;13.226;2023-06-14T15:09:16;5.43;;;1.20;;
64208;SDS011;50527;52.414;13.226;2023-06-14T15:11:41;2.80;;;1.10;;
64208;SDS011;50527;52.414;13.226;2023-06-14T15:14:09;5.82;;;1.10;;
64208;SDS011;50527;52.414;13.226;2023-06-14T15:16:35;5.60;;;1.02;;
64208;SDS011;50527;52.414;13.226;2023-06-14T15:19:00;2.28;;;1.00;;